奥様、ドキドキ。

LUXURY FLIGHT

03-6423-7371

羽田本店:東京都大田区羽田5-11-1
営業時間:10:00~20:00
定休日:毎週 月曜日
セントレア店:愛知県常滑市セントレア1-1
営業時間:10:00~20:00 年中無休

lv

奥様、ドキドキ。

STAFF BLOG

2019/08/06 奥様、ドキドキ。

おはざっすーーーーーー

 

本日の羽田METARは…

 

RJTT 060030Z 18013KT 9999 FEW015 32/27 Q1012 NOSIG RMK 1CU015 A2989」

 

セミの鳴き声が勢いを増してきましたーーーーーーーーー

 

さーてさてさて、今回はこちらのご夫婦ーーーー

 

 

img_2580

 

コックピットに入る前から笑顔の絶えないお二人でございましたが、

離陸が終わり、ご主人様が飛行機のコントロールをなんとなく掴み始めた頃…

 

「あら、ヤダ♡ こんなお父さんの顔見たことない♡♡」

 

後ろから奥様の黄色い声が聞こえてきます。笑

 

 

 

続く旋回。

 

ご主人様の真剣な眼差しと、でも少年のような横顔が右に左に繰り出されます。笑

 

奥様「もぅ、こんな表情見たの何年振りかしら♡♡」

 

奥様のドキドキも最高潮に達し、お二人のムードを大事にしたいな♡

なーんて考えていた私は、無謀にもトイレに行くフリをして中座を決意したのですが…

 

 

「プルアップ!!!」

 

 

のコンピューターからの電子音声にハッとなりご主人様を見ると、

機体が海に突っ込み始めてました。笑

 

 

ご主人の後述では「あの時、嫁の黄色い声が聞こえてプレッシャーとなり、操縦どころではなかった…」と。

 

 

結果、無事に着陸も出来て、皆がドキドキでハッピー!!!!というコトで落ち着きました。笑

 

お二人が楽しそうに並んで店を出るお姿、高校生のカップルのようで…

心が暖かくなりました、ご馳走様です

 

 

 

この度のご来店誠に有難うございました。

次回のご来店も心よりお待ちいたしております。

 

 

 

「感謝」

TOP